Time;durP1;ratioP1;P1;durP2;ratioP2;P2;SDS_P1;SDS_P2;PMS_P1;PMS_P2;Temp;Humidity;BMP_temperature;BMP_pressure;BME280_temperature;BME280_humidity;BME280_pressure;Samples;Min_cycle;Max_cycle;Signal;HPM_P1;HPM_P2
2020/12/04 00:00:22;;;;;;;42.20;20.42;;;;;;;-3.58;100.00;93968.28;1045330;28;20044;-74
2020/12/04 00:00:53;;;;;;;42.10;20.02;;;;;;;-3.71;100.00;93953.84;1033158;28;20242;-73
2020/12/04 00:01:24;;;;;;;41.75;20.77;;;;;;;-3.58;100.00;93961.31;1029313;29;20106;-74
2020/12/04 00:01:54;;;;;;;45.63;21.60;;;;;;;-3.51;100.00;93977.94;1041374;28;20249;-74
2020/12/04 00:02:25;;;;;;;38.97;19.85;;;;;;;-3.63;100.00;93959.13;1033055;28;20029;-74
2020/12/04 00:02:56;;;;;;;39.20;20.67;;;;;;;-3.51;100.00;93974.53;1036611;28;20022;-74
2020/12/04 00:03:26;;;;;;;40.67;20.80;;;;;;;-4.09;100.00;93879.50;1036188;28;20042;-75
2020/12/04 00:03:57;;;;;;;41.45;20.38;;;;;;;-3.52;100.00;93976.28;1036188;28;20026;-75
2020/12/04 00:04:28;;;;;;;43.15;20.63;;;;;;;-3.53;100.00;93966.09;1040082;28;20040;-74
2020/12/04 00:04:59;;;;;;;40.58;20.85;;;;;;;-3.50;100.00;93977.00;1035727;28;20018;-74
2020/12/04 00:05:30;;;;;;;42.83;20.42;;;;;;;-3.60;100.00;93955.44;1036111;28;20029;-74
2020/12/04 00:06:01;;;;;;;43.17;20.90;;;;;;;-3.52;100.00;93972.88;1035775;28;20329;-75
2020/12/04 00:06:33;;;;;;;42.15;21.10;;;;;;;-3.52;100.00;93970.28;1030626;28;20029;-75
2020/12/04 00:07:04;;;;;;;45.03;22.02;;;;;;;-3.60;100.00;93965.81;1050613;28;20082;-75
2020/12/04 00:07:35;;;;;;;42.80;20.17;;;;;;;-3.58;100.00;93966.50;1038555;28;20257;-75
2020/12/04 00:08:06;;;;;;;42.50;19.48;;;;;;;-3.58;100.00;93968.28;1042736;28;20017;-74
2020/12/04 00:08:36;;;;;;;42.88;21.92;;;;;;;-3.58;100.00;93968.28;1046941;28;20025;-74
2020/12/04 00:09:07;;;;;;;41.90;20.50;;;;;;;-3.70;100.00;93945.06;1034199;28;20110;-74
2020/12/04 00:09:41;;;;;;;44.05;20.98;;;;;;;-3.54;100.00;93962.66;1050940;28;20092;-75
2020/12/04 00:10:13;;;;;;;43.25;21.05;;;;;;;-3.50;100.00;93966.63;1034429;28;20021;-74
2020/12/04 00:10:44;;;;;;;42.78;21.02;;;;;;;-3.66;100.00;93945.63;1034337;28;20258;-73
2020/12/04 00:11:15;;;;;;;41.78;20.58;;;;;;;-3.51;100.00;93967.56;1042443;28;20307;-74
2020/12/04 00:11:45;;;;;;;41.40;19.75;;;;;;;-3.58;100.00;93952.72;1033918;28;20030;-74
2020/12/04 00:12:16;;;;;;;43.13;20.33;;;;;;;-3.45;100.00;93972.22;1038748;28;20037;-74
2020/12/04 00:12:47;;;;;;;41.28;20.65;;;;;;;-3.39;100.00;93978.59;1030258;28;20019;-74
2020/12/04 00:13:18;;;;;;;44.75;21.17;;;;;;;-3.57;100.00;93954.34;1042693;28;20021;-74
2020/12/04 00:13:49;;;;;;;39.63;20.02;;;;;;;-3.38;100.00;93982.00;1034625;28;20750;-75
2020/12/04 00:14:20;;;;;;;42.50;21.52;;;;;;;-3.56;100.00;93955.97;1034342;28;20023;-74
2020/12/04 00:14:50;;;;;;;42.55;21.45;;;;;;;-3.38;100.00;93969.84;1038254;28;20017;-74
2020/12/04 00:15:23;;;;;;;42.28;21.10;;;;;;;-3.41;100.00;93967.56;1030093;28;20027;-74
2020/12/04 00:15:53;;;;;;;38.78;20.15;;;;;;;-3.32;100.00;93974.50;1034616;28;20019;-75
2020/12/04 00:16:24;;;;;;;42.47;21.13;;;;;;;-3.30;100.00;93972.56;1046582;28;20264;-75
2020/12/04 00:16:55;;;;;;;40.40;20.80;;;;;;;-3.42;100.00;93958.13;1042284;28;20026;-74
2020/12/04 00:17:26;;;;;;;38.45;19.95;;;;;;;-3.30;100.00;93975.16;1038266;28;20028;-74
2020/12/04 00:17:56;;;;;;;44.25;21.13;;;;;;;-3.29;100.00;93979.41;1030326;28;20050;-74
2020/12/04 00:18:27;;;;;;;39.22;20.25;;;;;;;-3.48;100.00;93951.72;1038776;28;20167;-74
2020/12/04 00:18:58;;;;;;;38.25;20.35;;;;;;;-3.32;100.00;93969.28;1038168;28;20029;-74
2020/12/04 00:19:31;;;;;;;44.17;21.75;;;;;;;-3.32;100.00;93964.09;1034741;28;20018;-75
2020/12/04 00:20:03;;;;;;;44.00;21.10;;;;;;;-3.39;100.00;93965.63;1042642;28;20069;-74
2020/12/04 00:20:34;;;;;;;36.92;19.15;;;;;;;-3.39;100.00;93973.41;1042800;28;20335;-74
2020/12/04 00:21:05;;;;;;;45.28;21.58;;;;;;;-3.37;100.00;93968.09;1026091;29;20255;-74
2020/12/04 00:21:36;;;;;;;38.63;20.20;;;;;;;-3.48;100.00;93963.88;1038745;28;20022;-74
2020/12/04 00:22:07;;;;;;;42.03;20.48;;;;;;;-3.47;100.00;93963.72;1038597;28;20033;-74
2020/12/04 00:22:38;;;;;;;43.97;22.10;;;;;;;-3.44;100.00;93962.63;1030256;28;20134;-74
2020/12/04 00:23:09;;;;;;;38.67;19.85;;;;;;;-3.49;100.00;93960.47;1034358;28;20038;-75
2020/12/04 00:23:40;;;;;;;41.63;21.30;;;;;;;-3.51;100.00;93953.78;1039221;28;20061;-75
2020/12/04 00:24:10;;;;;;;40.13;20.13;;;;;;;-3.43;100.00;93957.31;1026707;28;20051;-75
2020/12/04 00:24:41;;;;;;;42.33;21.13;;;;;;;-3.40;100.00;93961.38;1034585;28;20026;-74
2020/12/04 00:25:12;;;;;;;45.10;22.05;;;;;;;-3.69;100.00;93920.78;1030184;28;20023;-74
2020/12/04 00:25:43;;;;;;;42.92;20.83;;;;;;;-3.44;100.00;93955.66;1042184;28;20021;-74
2020/12/04 00:26:14;;;;;;;42.35;21.27;;;;;;;-3.46;100.00;93961.97;1042692;28;20438;-74
2020/12/04 00:26:45;;;;;;;42.53;20.20;;;;;;;-3.49;100.00;93952.69;1026402;28;20019;-74
2020/12/04 00:27:16;;;;;;;42.42;20.20;;;;;;;-3.48;100.00;93953.50;1034165;28;20596;-75
2020/12/04 00:27:47;;;;;;;41.30;20.00;;;;;;;-3.41;100.00;93944.22;1038537;28;20018;-74
2020/12/04 00:28:18;;;;;;;45.28;22.63;;;;;;;-3.56;100.00;93917.88;1025688;28;20271;-74
2020/12/04 00:28:49;;;;;;;41.47;21.58;;;;;;;-3.54;100.00;93926.34;1030024;28;20113;-74
2020/12/04 00:29:20;;;;;;;42.55;21.52;;;;;;;-3.45;100.00;93938.47;1038208;28;20022;-74
2020/12/04 00:29:51;;;;;;;44.28;21.48;;;;;;;-3.38;100.00;93941.31;1038351;28;20113;-74
2020/12/04 00:30:24;;;;;;;43.65;21.05;;;;;;;-3.36;100.00;93939.41;1030077;28;20391;-74
2020/12/04 00:30:55;;;;;;;37.85;19.77;;;;;;;-3.36;100.00;93935.97;1037877;28;20052;-74
2020/12/04 00:31:27;;;;;;;43.50;22.10;;;;;;;-3.53;100.00;93906.41;1042627;28;20261;-74
2020/12/04 00:31:58;;;;;;;43.65;21.58;;;;;;;-3.42;100.00;93935.59;1033831;28;20246;-74
2020/12/04 00:32:29;;;;;;;42.97;20.63;;;;;;;-3.39;100.00;93931.91;1042362;28;20248;-74
2020/12/04 00:33:00;;;;;;;42.22;20.55;;;;;;;-3.36;100.00;93930.78;1042255;28;20335;-74
2020/12/04 00:33:31;;;;;;;46.55;20.27;;;;;;;-3.35;100.00;93929.84;1033929;28;20081;-74
2020/12/04 00:34:02;;;;;;;42.42;20.63;;;;;;;-3.42;100.00;93934.78;1030281;28;20018;-74
2020/12/04 00:34:33;;;;;;;42.45;20.45;;;;;;;-3.32;100.00;93932.97;1034352;28;20306;-75
2020/12/04 00:35:03;;;;;;;43.90;21.33;;;;;;;-3.51;100.00;93913.09;1034570;28;20490;-74
2020/12/04 00:35:34;;;;;;;40.45;19.88;;;;;;;-3.36;100.00;93931.63;1025916;28;20019;-75
2020/12/04 00:36:05;;;;;;;47.42;21.45;;;;;;;-3.91;100.00;93833.78;1029904;28;20050;-75
2020/12/04 00:36:36;;;;;;;36.58;20.60;;;;;;;-3.33;100.00;93923.53;1038135;28;20018;-74
2020/12/04 00:37:07;;;;;;;44.25;20.80;;;;;;;-3.38;100.00;93917.94;1038335;28;20037;-74
2020/12/04 00:37:38;;;;;;;40.70;20.25;;;;;;;-3.30;100.00;93922.44;1030103;28;20352;-74
2020/12/04 00:38:09;;;;;;;41.63;21.73;;;;;;;-3.39;100.00;93911.16;1033906;28;20270;-74
2020/12/04 00:38:40;;;;;;;43.50;20.73;;;;;;;-3.35;100.00;93914.28;1037830;28;20081;-74
2020/12/04 00:39:11;;;;;;;43.03;19.77;;;;;;;-3.38;100.00;93912.75;1026073;28;20031;-75
2020/12/04 00:39:42;;;;;;;41.72;21.08;;;;;;;-3.33;100.00;93915.75;1034035;28;20019;-75
2020/12/04 00:40:13;;;;;;;41.30;20.73;;;;;;;-3.59;100.00;93871.47;1034228;28;20764;-75
2020/12/04 00:40:44;;;;;;;40.75;21.85;;;;;;;-3.74;100.00;93855.56;1038342;28;20552;-74
2020/12/04 00:41:15;;;;;;;39.92;20.08;;;;;;;-3.45;100.00;93901.31;1038017;28;20052;-74
2020/12/04 00:42:04;;;;;;;44.70;22.08;;;;;;;-3.38;100.00;93911.94;1037760;28;20022;-74
2020/12/04 00:42:35;;;;;;;43.58;20.75;;;;;;;-3.44;100.00;93902.97;1046344;28;20021;-74
2020/12/04 00:43:06;;;;;;;43.05;19.95;;;;;;;-3.49;100.00;93898.19;1037964;28;20322;-74
2020/12/04 00:43:37;;;;;;;41.95;21.67;;;;;;;-3.49;100.00;93900.78;1034125;28;20147;-74
2020/12/04 00:44:08;;;;;;;42.85;21.40;;;;;;;-3.44;100.00;93897.78;1037969;28;20538;-74
2020/12/04 00:44:38;;;;;;;43.03;20.85;;;;;;;-3.62;100.00;93874.38;1042087;28;20428;-74
2020/12/04 00:45:09;;;;;;;41.85;21.40;;;;;;;-3.51;100.00;93891.53;1037920;28;20136;-74
2020/12/04 00:45:40;;;;;;;43.47;21.23;;;;;;;-3.39;100.00;93900.78;1050407;28;20025;-74
2020/12/04 00:46:12;;;;;;;41.15;20.48;;;;;;;-3.55;100.00;93875.44;1038239;28;20022;-74
2020/12/04 00:46:43;;;;;;;40.83;19.63;;;;;;;-3.46;100.00;93876.34;1033738;28;20027;-74
2020/12/04 00:47:14;;;;;;;40.00;19.60;;;;;;;-3.32;100.00;93895.84;1037996;28;20272;-74
2020/12/04 00:47:45;;;;;;;40.72;20.15;;;;;;;-3.41;100.00;93890.53;1030091;28;20030;-74
2020/12/04 00:48:16;;;;;;;44.22;21.80;;;;;;;-3.58;100.00;93870.53;1034080;28;20137;-74
2020/12/04 00:48:47;;;;;;;40.25;19.85;;;;;;;-3.33;100.00;93896.78;1038306;28;20248;-74
2020/12/04 00:49:18;;;;;;;42.75;21.20;;;;;;;-3.33;100.00;93895.00;1037965;28;20022;-74
2020/12/04 00:49:49;;;;;;;47.38;21.08;;;;;;;-3.54;100.00;93868.47;1038228;28;20024;-75
2020/12/04 00:50:19;;;;;;;43.92;20.90;;;;;;;-3.42;100.00;93895.84;1042455;28;20021;-75
2020/12/04 00:50:50;;;;;;;42.72;20.58;;;;;;;-3.40;100.00;93896.53;1037886;28;20626;-74
2020/12/04 00:51:21;;;;;;;43.47;21.38;;;;;;;-3.36;100.00;93897.91;1030188;28;20061;-74
2020/12/04 00:51:52;;;;;;;44.90;22.20;;;;;;;-3.55;100.00;93859.88;1034067;28;20057;-74
2020/12/04 00:52:23;;;;;;;42.17;19.77;;;;;;;-3.40;100.00;93888.75;1034415;28;20110;-74
2020/12/04 00:52:54;;;;;;;41.00;21.02;;;;;;;-3.38;100.00;93901.56;1038129;28;20264;-74
2020/12/04 00:53:25;;;;;;;39.95;21.83;;;;;;;-3.33;100.00;93900.19;1042232;28;20031;-74
2020/12/04 00:53:56;;;;;;;41.63;20.80;;;;;;;-3.33;100.00;93884.63;1042225;28;20029;-74
2020/12/04 00:54:27;;;;;;;42.78;21.38;;;;;;;-3.22;100.00;93896.63;1034169;28;20258;-74
2020/12/04 00:54:58;;;;;;;46.72;21.67;;;;;;;-3.26;100.00;93892.66;1034041;28;20332;-75
2020/12/04 00:55:29;;;;;;;43.97;20.30;;;;;;;-3.24;100.00;93888.97;1042066;28;20271;-75
2020/12/04 00:56:00;;;;;;;42.33;20.38;;;;;;;-3.24;100.00;93888.97;1038241;28;20033;-75
2020/12/04 00:56:32;;;;;;;40.28;20.20;;;;;;;-3.34;100.00;93885.59;1038177;28;20026;-74
2020/12/04 00:57:06;;;;;;;42.83;21.33;;;;;;;-3.37;100.00;93888.47;1038016;28;20029;-74
2020/12/04 00:57:37;;;;;;;42.50;21.30;;;;;;;-3.96;100.00;93778.94;1030438;28;20253;-74
2020/12/04 00:58:08;;;;;;;43.13;21.40;;;;;;;-3.36;100.00;93881.50;1033904;28;20268;-74
2020/12/04 00:58:39;;;;;;;42.25;21.85;;;;;;;-3.30;100.00;93883.53;1038386;28;20022;-74
2020/12/04 00:59:09;;;;;;;44.78;21.58;;;;;;;-3.30;100.00;93880.94;1038118;28;20064;-74
2020/12/04 00:59:40;;;;;;;44.10;21.85;;;;;;;-3.28;100.00;93882.41;1026362;29;20024;-75
2020/12/04 01:00:11;;;;;;;44.58;22.02;;;;;;;-3.48;100.00;93844.56;1034083;28;20058;-74
2020/12/04 01:00:42;;;;;;;44.08;21.35;;;;;;;-3.31;100.00;93880.13;1038206;28;20042;-74
2020/12/04 01:01:13;;;;;;;43.28;21.33;;;;;;;-3.30;100.00;93873.94;1042566;28;20482;-74
2020/12/04 01:01:43;;;;;;;38.83;20.13;;;;;;;-3.26;100.00;93875.31;1034276;28;20382;-74
2020/12/04 01:02:14;;;;;;;43.60;21.15;;;;;;;-3.28;100.00;93879.00;1034324;28;20082;-74
2020/12/04 01:02:45;;;;;;;41.50;20.90;;;;;;;-3.49;100.00;93835.13;1041961;28;20021;-74
2020/12/04 01:03:16;;;;;;;38.60;19.17;;;;;;;-3.27;100.00;93875.47;1038438;28;20080;-74
2020/12/04 01:03:47;;;;;;;41.05;20.35;;;;;;;-3.68;100.00;93799.72;1038392;28;20013;-74
2020/12/04 01:04:17;;;;;;;38.90;19.77;;;;;;;-3.28;100.00;93877.22;1038236;28;20060;-74
2020/12/04 01:04:48;;;;;;;41.67;20.10;;;;;;;-3.30;100.00;93866.16;1038106;28;20033;-74
2020/12/04 01:05:19;;;;;;;40.70;21.25;;;;;;;-3.26;100.00;93859.75;1034399;28;20022;-74
2020/12/04 01:05:50;;;;;;;40.00;20.58;;;;;;;-3.24;100.00;93868.19;1038736;28;20441;-74
2020/12/04 01:06:22;;;;;;;44.97;21.85;;;;;;;-3.30;100.00;93867.97;1042347;28;20151;-74
2020/12/04 01:06:53;;;;;;;42.63;20.10;;;;;;;-3.70;100.00;93820.59;1029833;28;20262;-74
2020/12/04 01:07:24;;;;;;;39.65;20.17;;;;;;;-3.33;100.00;93869.03;1038040;28;20249;-74
2020/12/04 01:07:54;;;;;;;42.75;21.90;;;;;;;-3.27;100.00;93871.06;1038405;28;20257;-74
2020/12/04 01:08:25;;;;;;;49.90;20.35;;;;;;;-3.28;100.00;93873.81;1038291;28;20406;-75
2020/12/04 01:08:56;;;;;;;40.85;19.25;;;;;;;-3.28;100.00;93874.63;1034000;28;20387;-74
2020/12/04 01:09:27;;;;;;;38.83;20.75;;;;;;;-3.24;100.00;93883.78;1038634;28;20033;-74
2020/12/04 01:09:58;;;;;;;40.08;20.30;;;;;;;-3.26;100.00;93867.53;1042882;28;20585;-75
2020/12/04 01:10:29;;;;;;;44.42;21.20;;;;;;;-3.17;100.00;93878.00;1038368;28;20478;-74
2020/12/04 01:11:00;;;;;;;40.38;20.08;;;;;;;-3.20;100.00;93886.06;1034216;28;20258;-74
2020/12/04 01:11:31;;;;;;;41.00;20.33;;;;;;;-3.26;100.00;93864.94;1038046;28;20014;-74
2020/12/04 01:12:03;;;;;;;39.97;19.60;;;;;;;-3.18;100.00;93882.38;1046578;28;20017;-74
2020/12/04 01:12:34;;;;;;;41.20;20.08;;;;;;;-3.16;100.00;93887.44;1038214;28;20250;-74
2020/12/04 01:13:05;;;;;;;40.33;20.60;;;;;;;-3.20;100.00;93879.09;1034261;28;20250;-74
2020/12/04 01:13:36;;;;;;;38.65;19.83;;;;;;;-3.14;100.00;93883.72;1034416;28;20094;-74
2020/12/04 01:14:07;;;;;;;42.13;20.35;;;;;;;-3.13;100.00;93885.34;1034360;28;20022;-74
2020/12/04 01:14:38;;;;;;;40.63;19.17;;;;;;;-3.12;100.00;93876.59;1038373;28;20261;-74
2020/12/04 01:15:09;;;;;;;44.88;21.98;;;;;;;-3.32;100.00;93868.09;1042228;28;20641;-74
2020/12/04 01:15:40;;;;;;;42.72;21.52;;;;;;;-3.26;100.00;93882.28;1034111;28;20459;-74
2020/12/04 01:16:10;;;;;;;43.85;21.27;;;;;;;-3.25;100.00;93881.31;1034295;28;20278;-75
2020/12/04 01:16:42;;;;;;;38.88;19.75;;;;;;;-3.28;100.00;93881.59;1038389;28;20056;-74
2020/12/04 01:17:13;;;;;;;39.22;19.58;;;;;;;-3.30;100.00;93855.78;1038485;28;20816;-74
2020/12/04 01:17:44;;;;;;;39.95;19.00;;;;;;;-3.19;100.00;93883.31;1034310;28;20038;-75
2020/12/04 01:18:16;;;;;;;41.83;21.58;;;;;;;-3.18;100.00;93889.34;1038036;28;20261;-75
2020/12/04 01:18:47;;;;;;;39.53;20.40;;;;;;;-3.18;100.00;93891.94;1042656;28;20017;-74
2020/12/04 01:19:17;;;;;;;43.17;21.08;;;;;;;-3.12;100.00;93880.97;1034417;28;20308;-74
2020/12/04 01:19:48;;;;;;;36.55;20.38;;;;;;;-3.26;100.00;93867.53;1034439;28;20035;-74
2020/12/04 01:20:19;;;;;;;42.30;20.63;;;;;;;-3.22;100.00;93884.44;1038074;28;20029;-74
2020/12/04 01:20:50;;;;;;;41.72;19.75;;;;;;;-3.28;100.00;93859.06;1042521;28;20059;-74
2020/12/04 01:21:21;;;;;;;40.60;20.13;;;;;;;-3.21;100.00;93874.88;1030207;28;20274;-75
2020/12/04 01:21:52;;;;;;;38.00;19.45;;;;;;;-3.19;100.00;93885.91;1041845;28;20421;-75
2020/12/04 01:22:23;;;;;;;40.70;20.48;;;;;;;-3.36;100.00;93856.38;1045853;28;20021;-75
2020/12/04 01:22:54;;;;;;;40.88;20.45;;;;;;;-3.17;100.00;93871.03;1034506;28;20033;-74
2020/12/04 01:23:25;;;;;;;42.50;21.08;;;;;;;-3.16;100.00;93877.84;1039454;28;20105;-74
2020/12/04 01:23:56;;;;;;;40.97;20.88;;;;;;;-3.22;100.00;93870.66;1035731;28;20257;-74
2020/12/04 01:24:26;;;;;;;38.17;19.77;;;;;;;-3.24;100.00;93860.41;1035297;28;20033;-74
2020/12/04 01:24:58;;;;;;;41.42;20.80;;;;;;;-3.15;100.00;93874.31;1039562;28;20022;-74
2020/12/04 01:25:29;;;;;;;39.05;20.67;;;;;;;-3.23;100.00;93853.44;1039450;28;20029;-74
2020/12/04 01:26:00;;;;;;;41.03;20.65;;;;;;;-3.15;100.00;93870.88;1039659;28;20312;-74
2020/12/04 01:26:31;;;;;;;37.58;19.65;;;;;;;-3.18;100.00;93871.19;1048062;28;20017;-74
2020/12/04 01:27:02;;;;;;;39.85;20.73;;;;;;;-3.27;100.00;93873.69;1031513;28;20337;-74
2020/12/04 01:27:33;;;;;;;41.78;20.27;;;;;;;-3.22;100.00;93874.06;1035270;28;20022;-74
2020/12/04 01:28:04;;;;;;;38.88;19.50;;;;;;;-3.54;100.00;93808.78;1039295;28;20022;-74
2020/12/04 01:28:35;;;;;;;42.72;20.02;;;;;;;-3.26;100.00;93871.88;1035354;28;20032;-74
2020/12/04 01:29:06;;;;;;;41.05;19.67;;;;;;;-3.29;100.00;93874.75;1039658;28;20041;-74
2020/12/04 01:29:37;;;;;;;38.15;19.63;;;;;;;-3.28;100.00;93868.63;1031281;28;20019;-75
2020/12/04 01:30:08;;;;;;;41.38;20.70;;;;;;;-3.29;100.00;93867.81;1039409;28;20256;-74
2020/12/04 01:30:39;;;;;;;40.88;21.17;;;;;;;-3.31;100.00;93866.31;1043719;28;20331;-74
2020/12/04 01:31:10;;;;;;;46.30;21.63;;;;;;;-3.30;100.00;93868.75;1035450;28;20038;-75
2020/12/04 01:31:45;;;;;;;40.78;21.08;;;;;;;-3.29;100.00;93870.41;1035790;28;20026;-74
2020/12/04 01:32:16;;;;;;;40.38;19.77;;;;;;;-3.41;100.00;93856.00;1039391;28;20741;-74
2020/12/04 01:32:47;;;;;;;39.92;19.92;;;;;;;-3.34;100.00;93861.44;1035305;28;20257;-74
2020/12/04 01:33:18;;;;;;;40.28;19.95;;;;;;;-3.34;100.00;93871.81;1039511;28;20054;-74
2020/12/04 01:33:49;;;;;;;38.92;19.80;;;;;;;-3.37;100.00;93862.50;1039595;28;20686;-74
2020/12/04 01:34:20;;;;;;;42.20;20.77;;;;;;;-3.32;100.00;93865.50;1035706;28;20033;-74
2020/12/04 01:34:51;;;;;;;42.78;22.60;;;;;;;-3.34;100.00;93859.63;1043606;28;20017;-74
2020/12/04 01:35:22;;;;;;;38.45;19.25;;;;;;;-3.31;100.00;93867.16;1031200;28;20026;-74
2020/12/04 01:35:53;;;;;;;39.65;19.65;;;;;;;-3.29;100.00;93870.41;1043499;28;20108;-74
2020/12/04 01:36:24;;;;;;;41.65;20.38;;;;;;;-3.33;100.00;93869.03;1039284;28;20132;-74
2020/12/04 01:36:54;;;;;;;40.33;21.55;;;;;;;-3.45;100.00;93850.28;1030986;28;20122;-74
2020/12/04 01:37:26;;;;;;;43.70;20.67;;;;;;;-3.35;100.00;93864.97;1034984;28;20094;-74
2020/12/04 01:37:56;;;;;;;42.83;20.92;;;;;;;-3.33;100.00;93863.03;1034110;28;20036;-74
2020/12/04 01:38:28;;;;;;;38.90;20.05;;;;;;;-3.30;100.00;93865.38;1038116;28;20387;-74
2020/12/04 01:38:59;;;;;;;44.53;21.38;;;;;;;-3.29;100.00;93860.03;1034150;28;20034;-74
2020/12/04 01:39:30;;;;;;;41.03;20.15;;;;;;;-3.30;100.00;93863.56;1029833;28;20305;-74
2020/12/04 01:40:01;;;;;;;44.47;20.60;;;;;;;-3.34;100.00;93867.44;1042310;28;20051;-76
2020/12/04 01:40:33;;;;;;;42.85;20.65;;;;;;;-3.34;100.00;93866.63;1026284;29;20038;-74
2020/12/04 01:41:04;;;;;;;40.92;19.95;;;;;;;-3.33;100.00;93865.63;1033923;28;20258;-74
2020/12/04 01:41:35;;;;;;;42.30;21.27;;;;;;;-3.32;100.00;93865.50;1034251;28;20257;-75
2020/12/04 01:42:06;;;;;;;46.42;22.15;;;;;;;-3.48;100.00;93842.78;1038165;28;20077;-74
2020/12/04 01:42:37;;;;;;;43.63;20.67;;;;;;;-3.40;100.00;93865.38;1034170;28;20540;-74
2020/12/04 01:43:08;;;;;;;37.72;19.67;;;;;;;-3.36;100.00;93864.16;1030262;28;20124;-74
2020/12/04 01:43:39;;;;;;;41.97;21.05;;;;;;;-3.41;100.00;93866.38;1046742;28;20024;-74
2020/12/04 01:44:10;;;;;;;41.13;20.90;;;;;;;-3.44;100.00;93869.25;1038448;28;20859;-74
2020/12/04 01:44:41;;;;;;;43.25;21.58;;;;;;;-3.94;100.00;93774.41;1037884;28;20034;-74
2020/12/04 01:45:12;;;;;;;46.40;21.42;;;;;;;-3.34;100.00;93859.63;1038225;28;20264;-74
2020/12/04 01:45:43;;;;;;;46.15;21.00;;;;;;;-3.35;100.00;93864.97;1026119;28;20282;-74
2020/12/04 01:46:14;;;;;;;40.58;20.38;;;;;;;-3.35;100.00;93868.38;1038535;28;20123;-74
2020/12/04 01:46:45;;;;;;;42.30;21.02;;;;;;;-3.49;100.00;93848.09;1025922;28;20086;-74
2020/12/04 01:47:17;;;;;;;43.75;21.77;;;;;;;-3.34;100.00;93861.44;1034400;28;20565;-75
2020/12/04 01:47:48;;;;;;;42.83;22.23;;;;;;;-3.33;100.00;93865.63;1042235;28;20083;-74
2020/12/04 01:48:19;;;;;;;38.90;20.90;;;;;;;-3.37;100.00;93856.53;1042360;28;20342;-74
2020/12/04 01:48:50;;;;;;;43.53;21.17;;;;;;;-3.38;100.00;93860.88;1038213;28;20516;-74
2020/12/04 01:49:21;;;;;;;43.67;20.75;;;;;;;-3.48;100.00;93840.19;1042288;28;20252;-74
2020/12/04 01:49:52;;;;;;;38.88;20.13;;;;;;;-3.39;100.00;93854.06;1034064;28;20026;-74
2020/12/04 01:50:24;;;;;;;47.55;22.65;;;;;;;-3.42;100.00;93852.56;1030346;28;20026;-75
2020/12/04 01:50:55;;;;;;;37.97;19.55;;;;;;;-3.41;100.00;93856.00;1038060;28;20022;-74
2020/12/04 01:51:27;;;;;;;38.72;19.50;;;;;;;-3.43;100.00;93852.69;1034062;28;20345;-75
2020/12/04 01:51:58;;;;;;;46.60;21.23;;;;;;;-3.51;100.00;93843.06;1042145;28;20025;-75
2020/12/04 01:52:29;;;;;;;44.65;21.15;;;;;;;-3.47;100.00;93846.16;1038109;28;20332;-74
2020/12/04 01:52:59;;;;;;;42.70;22.35;;;;;;;-3.65;100.00;93822.78;1025665;29;20748;-74
2020/12/04 01:53:33;;;;;;;45.42;21.88;;;;;;;-3.48;100.00;93850.56;1037488;28;20084;-74
2020/12/04 01:54:04;;;;;;;40.97;21.35;;;;;;;-3.47;100.00;93844.38;1037485;28;20032;-74
2020/12/04 01:54:35;;;;;;;42.53;20.75;;;;;;;-3.45;100.00;93849.44;1025800;28;20334;-75
2020/12/04 01:55:06;;;;;;;43.92;21.33;;;;;;;-3.44;100.00;93838.91;1033531;28;20026;-74
2020/12/04 01:55:36;;;;;;;46.38;21.70;;;;;;;-3.39;100.00;93851.47;1037926;28;20052;-74
2020/12/04 01:56:07;;;;;;;40.47;21.77;;;;;;;-3.39;100.00;93838.50;1037958;28;20030;-75
2020/12/04 01:56:38;;;;;;;42.95;20.65;;;;;;;-3.43;100.00;93834.53;1037990;28;20057;-74
2020/12/04 01:57:09;;;;;;;44.88;21.75;;;;;;;-3.45;100.00;93829.53;1029896;28;20035;-74
2020/12/04 01:57:44;;;;;;;49.60;22.10;;;;;;;-3.43;100.00;93827.59;1030201;28;20250;-74
2020/12/04 01:58:17;;;;;;;40.63;20.95;;;;;;;-3.43;100.00;93825.00;1034169;28;20273;-74
2020/12/04 01:58:48;;;;;;;50.17;23.02;;;;;;;-3.42;100.00;93828.41;1038963;28;20340;-74
2020/12/04 01:59:19;;;;;;;41.85;21.33;;;;;;;-3.38;100.00;93829.72;1042348;28;20272;-74
2020/12/04 01:59:49;;;;;;;40.72;20.75;;;;;;;-3.44;100.00;93820.75;1034116;28;20408;-74
2020/12/04 02:00:21;;;;;;;44.03;20.73;;;;;;;-3.45;100.00;93824.34;1038360;28;20025;-75
2020/12/04 02:00:52;;;;;;;39.58;20.88;;;;;;;-3.40;100.00;93818.69;1034150;28;20161;-74
2020/12/04 02:01:23;;;;;;;44.67;22.17;;;;;;;-3.44;100.00;93823.34;1042419;28;20252;-75
2020/12/04 02:02:06;;;;;;;46.22;21.83;;;;;;;-3.58;100.00;93790.13;1038237;28;20029;-75
2020/12/04 02:02:37;;;;;;;43.75;21.63;;;;;;;-3.48;100.00;93809.03;1026155;29;20277;-74
2020/12/04 02:03:09;;;;;;;45.03;21.90;;;;;;;-3.39;100.00;93822.94;1033833;28;20264;-75
2020/12/04 02:03:41;;;;;;;50.15;21.73;;;;;;;-3.38;100.00;93821.13;1036102;28;20061;-75
2020/12/04 02:04:13;;;;;;;41.50;20.95;;;;;;;-3.35;100.00;93818.28;1041900;28;20264;-75
2020/12/04 02:04:44;;;;;;;44.70;22.20;;;;;;;-3.37;100.00;93818.41;1041737;28;20286;-73
2020/12/04 02:05:15;;;;;;;44.88;20.65;;;;;;;-3.42;100.00;93815.44;1042019;28;20295;-74
2020/12/04 02:05:54;;;;;;;45.60;21.35;;;;;;;-3.44;100.00;93819.94;1030133;28;20654;-74
2020/12/04 02:06:35;;;;;;;47.70;21.88;;;;;;;-3.36;100.00;93817.47;1029780;28;20334;-75
2020/12/04 02:07:08;;;;;;;46.60;21.58;;;;;;;-3.58;100.00;93797.91;1037754;28;20029;-74
2020/12/04 02:07:54;;;;;;;45.28;21.83;;;;;;;-3.65;100.00;93782.09;1042373;28;20604;-74
2020/12/04 02:08:30;;;;;;;44.88;20.83;;;;;;;-3.35;100.00;93823.47;1030055;28;20266;-74
2020/12/04 02:09:06;;;;;;;41.58;20.83;;;;;;;-3.43;100.00;93806.00;1033561;28;20288;-75
2020/12/04 02:09:42;;;;;;;45.60;21.38;;;;;;;-3.37;100.00;93815.81;1041863;28;20360;-74
2020/12/04 02:10:18;;;;;;;40.63;20.00;;;;;;;-3.42;100.00;93812.84;1033909;28;20268;-74
2020/12/04 02:11:00;;;;;;;47.97;22.05;;;;;;;-3.62;100.00;93789.59;1041847;28;20268;-74
2020/12/04 02:11:31;;;;;;;44.45;22.15;;;;;;;-3.53;100.00;93808.66;1033710;28;20265;-74
2020/12/04 02:12:03;;;;;;;44.95;20.92;;;;;;;-3.52;100.00;93812.06;1025911;29;20262;-74
2020/12/04 02:12:34;;;;;;;45.42;20.73;;;;;;;-3.48;100.00;93813.44;1038105;28;20014;-73
2020/12/04 02:13:05;;;;;;;46.60;21.67;;;;;;;-3.51;100.00;93809.31;1042192;28;20260;-74
2020/12/04 02:13:36;;;;;;;48.47;22.83;;;;;;;-3.54;100.00;93807.00;1033903;28;20297;-74
2020/12/04 02:14:07;;;;;;;46.35;21.30;;;;;;;-3.50;100.00;93810.13;1042243;28;20276;-74
2020/12/04 02:14:38;;;;;;;46.70;22.45;;;;;;;-3.51;100.00;93808.53;1038111;28;20257;-74
2020/12/04 02:15:09;;;;;;;44.80;21.77;;;;;;;-3.46;100.00;93806.31;1029873;28;20086;-74
2020/12/04 02:15:41;;;;;;;44.72;22.85;;;;;;;-3.42;100.00;93805.84;1038283;28;20070;-74
2020/12/04 02:16:20;;;;;;;44.83;22.15;;;;;;;-3.38;100.00;93808.16;1042451;28;20276;-74
2020/12/04 02:17:06;;;;;;;47.97;21.90;;;;;;;-3.71;100.00;93776.66;1026058;29;20338;-74
2020/12/04 02:17:37;;;;;;;44.60;21.95;;;;;;;-3.58;100.00;93784.94;1042587;28;20170;-74
2020/12/04 02:18:08;;;;;;;43.88;21.17;;;;;;;-3.42;100.00;93807.66;1042230;28;20252;-74
2020/12/04 02:18:39;;;;;;;47.47;21.98;;;;;;;-3.40;100.00;93797.94;1030008;28;20456;-74
2020/12/04 02:19:11;;;;;;;45.95;21.85;;;;;;;-3.36;100.00;93803.66;1038324;28;20486;-74
2020/12/04 02:19:43;;;;;;;45.63;22.13;;;;;;;-3.40;100.00;93808.31;1042111;28;20030;-74
2020/12/04 02:20:14;;;;;;;46.72;22.77;;;;;;;-3.42;100.00;93802.47;1038397;28;20288;-75
2020/12/04 02:20:58;;;;;;;47.38;21.80;;;;;;;-3.49;100.00;93796.22;1030110;28;20293;-74
2020/12/04 02:21:29;;;;;;;47.67;21.98;;;;;;;-3.52;100.00;93802.50;1038578;28;20256;-75
2020/12/04 02:21:59;;;;;;;43.03;21.25;;;;;;;-3.66;100.00;93783.06;1038232;28;20268;-74
2020/12/04 02:22:38;;;;;;;47.53;22.77;;;;;;;-3.61;100.00;93791.19;1038087;28;20049;-74
2020/12/04 02:23:11;;;;;;;47.70;21.80;;;;;;;-3.55;100.00;93804.56;1038347;28;20025;-74
2020/12/04 02:23:50;;;;;;;46.75;22.10;;;;;;;-3.54;100.00;93803.63;1042616;28;20036;-75